Time;durP1;ratioP1;P1;durP2;ratioP2;P2;SDS_P1;SDS_P2;PMS_P1;PMS_P2;Temp;Humidity;BMP_temperature;BMP_pressure;BME280_temperature;BME280_humidity;BME280_pressure;Samples;Min_cycle;Max_cycle;Signal;HPM_P1;HPM_P2
2023/04/17 00:02:03;;;;;;;30.30;20.53;;;11.60;99.90;;;;;;5051705;28;20177;-72
2023/04/17 00:04:29;;;;;;;32.40;22.20;;;11.50;99.90;;;;;;5051453;28;20271;-71
2023/04/17 00:06:55;;;;;;;31.53;20.17;;;11.60;99.90;;;;;;5051338;28;20723;-73
2023/04/17 00:09:21;;;;;;;35.83;20.77;;;11.50;99.90;;;;;;5050523;28;20261;-71
2023/04/17 00:11:46;;;;;;;38.20;20.67;;;11.50;99.90;;;;;;5051181;28;20252;-71
2023/04/17 00:14:12;;;;;;;33.10;20.43;;;11.60;99.90;;;;;;5051396;28;20203;-71
2023/04/17 00:16:37;;;;;;;40.00;21.80;;;11.60;99.90;;;;;;5052309;28;20567;-70
2023/04/17 00:19:03;;;;;;;34.03;20.00;;;11.50;99.90;;;;;;5050740;28;20644;-70
2023/04/17 00:21:30;;;;;;;36.80;22.23;;;11.50;99.90;;;;;;5052430;28;20514;-71
2023/04/17 00:23:56;;;;;;;35.20;21.67;;;11.50;99.90;;;;;;5052053;28;20155;-71
2023/04/17 00:26:22;;;;;;;33.80;19.60;;;11.60;99.90;;;;;;5052130;28;20409;-71
2023/04/17 00:28:49;;;;;;;39.63;22.03;;;11.50;99.90;;;;;;5051818;28;20539;-70
2023/04/17 00:31:15;;;;;;;40.07;20.67;;;11.60;99.90;;;;;;5050896;28;20171;-71
2023/04/17 00:33:40;;;;;;;43.83;22.03;;;11.60;99.90;;;;;;5051971;28;20496;-71
2023/04/17 00:36:07;;;;;;;37.87;22.47;;;11.60;99.90;;;;;;5051937;28;20187;-71
2023/04/17 00:38:32;;;;;;;44.73;21.57;;;11.60;99.90;;;;;;5050524;28;20761;-70
2023/04/17 00:40:58;;;;;;;29.50;21.03;;;11.60;99.90;;;;;;5050663;28;20406;-70
2023/04/17 00:43:23;;;;;;;31.17;19.67;;;11.60;99.90;;;;;;5051979;28;20170;-70
2023/04/17 00:45:49;;;;;;;33.57;20.30;;;11.50;99.90;;;;;;5050584;28;20687;-70
2023/04/17 00:48:16;;;;;;;33.50;20.80;;;11.60;99.90;;;;;;5051781;28;20170;-70
2023/04/17 00:50:43;;;;;;;42.60;23.23;;;11.60;99.90;;;;;;5051907;28;20892;-71
2023/04/17 00:53:10;;;;;;;33.03;20.90;;;11.60;99.90;;;;;;5051969;28;20424;-70
2023/04/17 00:55:38;;;;;;;29.47;21.30;;;11.60;99.90;;;;;;5051882;28;20425;-71
2023/04/17 00:58:04;;;;;;;36.03;22.10;;;11.60;99.90;;;;;;5051494;28;20449;-71
2023/04/17 01:00:30;;;;;;;35.37;20.77;;;11.60;99.90;;;;;;5051807;28;20425;-72
2023/04/17 01:02:56;;;;;;;35.53;20.13;;;11.60;99.90;;;;;;5050522;28;20507;-72
2023/04/17 01:05:23;;;;;;;30.30;20.67;;;11.60;99.90;;;;;;5051813;28;20229;-71
2023/04/17 01:07:49;;;;;;;35.13;21.37;;;11.60;99.90;;;;;;5051475;28;20956;-71
2023/04/17 01:10:15;;;;;;;32.60;22.67;;;11.60;99.90;;;;;;5051814;28;20420;-72
2023/04/17 01:12:45;;;;;;;37.80;20.90;;;11.60;99.90;;;;;;5051709;28;20229;-72
2023/04/17 01:15:11;;;;;;;33.47;21.63;;;11.60;99.90;;;;;;5051609;28;20186;-70
2023/04/17 01:17:36;;;;;;;31.60;20.63;;;11.70;99.90;;;;;;5051277;28;20449;-70
2023/04/17 01:20:06;;;;;;;29.13;19.50;;;11.70;99.90;;;;;;5051669;28;20401;-71
2023/04/17 01:22:32;;;;;;;32.40;21.23;;;11.70;99.90;;;;;;5051619;28;20212;-72
2023/04/17 01:24:58;;;;;;;36.73;19.13;;;11.70;99.90;;;;;;5051476;28;20930;-71
2023/04/17 01:27:23;;;;;;;37.40;19.67;;;11.70;99.90;;;;;;5049951;28;20425;-71
2023/04/17 01:29:49;;;;;;;31.87;20.23;;;11.70;99.90;;;;;;5051677;28;20644;-71
2023/04/17 01:32:16;;;;;;;31.10;18.57;;;11.70;99.90;;;;;;5051533;28;20246;-71
2023/04/17 01:34:42;;;;;;;30.10;19.70;;;11.70;99.90;;;;;;5051520;28;20187;-71
2023/04/17 01:37:07;;;;;;;28.80;19.67;;;11.70;99.90;;;;;;5051389;28;20449;-70
2023/04/17 01:39:33;;;;;;;27.90;19.77;;;11.70;99.90;;;;;;5054047;28;20171;-71
2023/04/17 01:41:58;;;;;;;30.30;20.63;;;11.70;99.90;;;;;;5055303;28;20537;-71
2023/04/17 01:44:24;;;;;;;35.70;20.40;;;11.70;99.90;;;;;;5055151;28;20190;-72
2023/04/17 01:46:50;;;;;;;33.70;21.67;;;11.70;99.90;;;;;;5054997;28;20648;-72
2023/04/17 01:49:15;;;;;;;28.80;19.43;;;11.70;99.90;;;;;;5055111;28;20167;-71
2023/04/17 01:51:41;;;;;;;33.17;20.17;;;11.70;99.90;;;;;;5053825;28;20278;-72
2023/04/17 01:54:07;;;;;;;28.70;19.80;;;11.70;99.90;;;;;;5055016;28;20193;-71
2023/04/17 01:56:32;;;;;;;29.63;21.30;;;11.70;99.90;;;;;;5054950;28;20194;-71
2023/04/17 01:58:58;;;;;;;34.93;21.73;;;11.70;99.90;;;;;;5053569;28;20175;-71
2023/04/17 02:01:23;;;;;;;31.87;21.37;;;11.70;99.90;;;;;;5054923;28;20171;-72
2023/04/17 02:03:49;;;;;;;31.03;18.60;;;11.70;99.90;;;;;;5053613;28;20539;-71
2023/04/17 02:06:15;;;;;;;35.63;22.07;;;11.70;99.90;;;;;;5054744;28;20553;-71
2023/04/17 02:08:41;;;;;;;30.50;20.77;;;11.70;99.90;;;;;;5053554;28;20244;-71
2023/04/17 02:11:06;;;;;;;29.17;19.07;;;11.60;99.90;;;;;;5054809;28;20888;-71
2023/04/17 02:13:32;;;;;;;29.77;20.23;;;11.60;99.90;;;;;;5054657;28;20179;-71
2023/04/17 02:15:57;;;;;;;28.27;20.60;;;11.60;99.90;;;;;;5053231;28;20190;-72
2023/04/17 02:18:23;;;;;;;37.90;21.53;;;11.60;99.90;;;;;;5054466;28;20175;-72
2023/04/17 02:20:48;;;;;;;33.63;21.80;;;11.60;99.90;;;;;;5054489;28;20167;-71
2023/04/17 02:23:14;;;;;;;29.47;21.30;;;11.60;99.90;;;;;;5054513;28;20534;-71
2023/04/17 02:25:40;;;;;;;32.80;22.23;;;11.60;99.90;;;;;;5054354;28;20273;-71
2023/04/17 02:28:05;;;;;;;30.13;21.37;;;11.60;99.90;;;;;;5052846;28;20170;-71
2023/04/17 02:30:31;;;;;;;30.63;21.20;;;11.60;99.90;;;;;;5054473;28;20163;-72
2023/04/17 02:32:57;;;;;;;31.57;20.90;;;11.60;99.90;;;;;;5054609;28;20191;-72
2023/04/17 02:35:25;;;;;;;28.50;20.77;;;11.60;99.90;;;;;;5054196;28;20183;-71
2023/04/17 02:37:50;;;;;;;29.87;20.37;;;11.60;99.90;;;;;;5054147;28;20856;-71
2023/04/17 02:40:17;;;;;;;33.80;21.93;;;11.60;99.90;;;;;;5054274;28;20412;-71
2023/04/17 02:42:42;;;;;;;30.97;21.57;;;11.50;99.90;;;;;;5052883;28;20174;-72
2023/04/17 02:45:09;;;;;;;35.80;21.47;;;11.50;99.90;;;;;;5054090;28;20918;-72
2023/04/17 02:47:35;;;;;;;32.73;21.50;;;11.40;99.90;;;;;;5052676;28;20170;-71
2023/04/17 02:50:01;;;;;;;28.90;21.00;;;11.40;99.90;;;;;;5053056;28;20459;-71
2023/04/17 02:52:28;;;;;;;31.17;21.43;;;11.40;99.90;;;;;;5054055;28;20697;-71
2023/04/17 02:54:53;;;;;;;39.27;21.67;;;11.40;99.90;;;;;;5054055;28;20230;-71
2023/04/17 02:57:19;;;;;;;40.13;23.60;;;11.40;99.90;;;;;;5053764;28;20472;-72
2023/04/17 02:59:45;;;;;;;38.00;23.20;;;11.40;99.90;;;;;;5052823;28;20585;-71
2023/04/17 03:02:13;;;;;;;32.80;22.17;;;11.40;99.90;;;;;;5054032;28;20167;-72
2023/04/17 03:04:39;;;;;;;35.90;23.63;;;11.40;99.90;;;;;;5053790;28;20656;-71
2023/04/17 03:07:05;;;;;;;33.67;22.60;;;11.40;99.90;;;;;;5052390;28;20616;-71
2023/04/17 03:09:32;;;;;;;43.50;22.37;;;11.40;99.90;;;;;;5052418;28;20475;-71
2023/04/17 03:11:58;;;;;;;33.00;20.13;;;11.40;99.90;;;;;;5053656;28;20440;-71
2023/04/17 03:14:24;;;;;;;36.43;22.07;;;11.40;99.90;;;;;;5053513;28;20914;-72
2023/04/17 03:16:49;;;;;;;33.70;23.50;;;11.40;99.90;;;;;;5052117;28;20503;-71
2023/04/17 03:19:15;;;;;;;40.30;23.37;;;11.30;99.90;;;;;;5053433;28;20171;-71
2023/04/17 03:21:40;;;;;;;34.10;23.17;;;11.30;99.90;;;;;;5052373;28;20171;-72
2023/04/17 03:24:06;;;;;;;36.03;22.40;;;11.30;99.90;;;;;;5053359;28;20187;-72
2023/04/17 03:26:31;;;;;;;35.97;22.87;;;11.30;99.90;;;;;;5053384;28;20175;-72
2023/04/17 03:28:57;;;;;;;37.67;24.13;;;11.30;99.90;;;;;;5053153;28;20177;-71
2023/04/17 03:31:24;;;;;;;40.60;23.47;;;11.30;99.90;;;;;;5052047;28;20185;-72
2023/04/17 03:33:50;;;;;;;31.00;22.87;;;11.30;99.90;;;;;;5053303;28;20167;-72
2023/04/17 03:36:16;;;;;;;35.97;23.77;;;11.30;99.90;;;;;;5053175;28;20873;-71
2023/04/17 03:38:42;;;;;;;40.50;24.20;;;11.30;99.90;;;;;;5052035;28;20167;-71
2023/04/17 03:41:09;;;;;;;42.10;24.60;;;11.30;99.90;;;;;;5052162;28;20409;-71
2023/04/17 03:43:34;;;;;;;36.77;24.90;;;11.20;99.90;;;;;;5053253;28;20163;-71
2023/04/17 03:46:00;;;;;;;38.07;24.37;;;11.20;99.90;;;;;;5053220;28;20432;-72
2023/04/17 03:48:26;;;;;;;44.33;25.30;;;11.20;99.90;;;;;;5052951;28;20166;-72
2023/04/17 03:50:51;;;;;;;38.57;24.17;;;11.20;99.90;;;;;;5053327;28;20409;-71
2023/04/17 03:53:17;;;;;;;33.27;22.00;;;11.20;99.90;;;;;;5052974;28;20163;-72
2023/04/17 03:55:43;;;;;;;35.40;22.57;;;11.20;99.90;;;;;;5052091;28;20190;-72
2023/04/17 03:58:08;;;;;;;38.87;22.70;;;11.10;99.90;;;;;;5051244;28;20209;-72
2023/04/17 04:00:36;;;;;;;48.27;25.17;;;11.10;99.90;;;;;;5052744;28;20175;-72
2023/04/17 04:03:02;;;;;;;37.70;23.27;;;11.10;99.90;;;;;;5051711;28;20543;-72
2023/04/17 04:05:27;;;;;;;38.30;24.83;;;11.10;99.90;;;;;;5053035;28;20436;-72
2023/04/17 04:07:53;;;;;;;33.43;22.30;;;11.10;99.90;;;;;;5052745;28;20929;-72
2023/04/17 04:10:20;;;;;;;37.10;24.47;;;11.10;99.90;;;;;;5052799;28;20218;-72
2023/04/17 04:12:46;;;;;;;40.50;27.53;;;11.00;99.90;;;;;;5052542;28;20436;-72
2023/04/17 04:15:11;;;;;;;36.33;25.77;;;11.00;99.90;;;;;;5051421;28;20434;-70
2023/04/17 04:17:37;;;;;;;40.50;25.33;;;11.00;99.90;;;;;;5052254;28;20205;-70
2023/04/17 04:20:03;;;;;;;40.27;25.70;;;11.00;99.90;;;;;;5052368;28;20655;-71
2023/04/17 04:22:29;;;;;;;35.77;24.73;;;11.00;99.90;;;;;;5051624;28;20598;-70
2023/04/17 04:24:55;;;;;;;42.50;24.03;;;11.00;99.90;;;;;;5052493;28;20421;-72
2023/04/17 04:27:21;;;;;;;48.10;25.57;;;11.00;99.90;;;;;;5052409;28;20531;-72
2023/04/17 04:29:48;;;;;;;39.53;24.50;;;11.00;99.90;;;;;;5052409;28;20197;-71
2023/04/17 04:32:14;;;;;;;43.37;26.37;;;11.00;99.90;;;;;;5051038;28;20454;-72
2023/04/17 04:34:40;;;;;;;36.13;24.47;;;11.00;99.90;;;;;;5052327;28;20780;-71
2023/04/17 04:37:07;;;;;;;39.87;25.57;;;11.00;99.90;;;;;;5052178;28;20453;-71
2023/04/17 04:39:32;;;;;;;47.23;26.13;;;11.00;99.90;;;;;;5052220;28;20467;-70
2023/04/17 04:42:04;;;;;;;39.13;24.40;;;11.00;99.90;;;;;;5052276;28;20405;-71
2023/04/17 04:44:30;;;;;;;45.47;27.40;;;11.00;99.90;;;;;;5052407;28;20273;-71
2023/04/17 04:46:56;;;;;;;40.10;26.70;;;10.90;99.90;;;;;;5051873;28;20448;-70
2023/04/17 04:49:21;;;;;;;42.90;27.60;;;10.90;99.90;;;;;;5052301;28;20397;-71
2023/04/17 04:51:47;;;;;;;44.17;26.40;;;11.00;99.90;;;;;;5052449;28;20202;-73
2023/04/17 04:54:12;;;;;;;37.03;23.93;;;10.90;99.90;;;;;;5050983;28;20227;-72
2023/04/17 04:56:38;;;;;;;41.37;25.97;;;10.90;99.90;;;;;;5052111;28;20191;-71
2023/04/17 04:59:04;;;;;;;37.33;24.50;;;10.90;99.90;;;;;;5050416;28;20521;-72
2023/04/17 05:01:30;;;;;;;33.97;23.67;;;10.90;99.90;;;;;;5052287;28;20409;-71
2023/04/17 05:03:55;;;;;;;43.33;26.40;;;10.90;99.90;;;;;;5050842;28;20167;-71
2023/04/17 05:06:21;;;;;;;45.53;29.43;;;10.90;99.90;;;;;;5052073;28;20738;-72
2023/04/17 05:08:47;;;;;;;42.43;28.07;;;10.90;99.90;;;;;;5051772;28;20253;-72
2023/04/17 05:11:13;;;;;;;41.63;25.83;;;10.90;99.90;;;;;;5051849;28;20205;-73
2023/04/17 05:13:38;;;;;;;38.50;24.87;;;10.90;99.90;;;;;;5054807;28;20174;-69
2023/04/17 05:16:04;;;;;;;42.67;25.70;;;10.90;99.90;;;;;;5055846;28;20417;-71
2023/04/17 05:18:30;;;;;;;40.50;24.07;;;10.90;99.90;;;;;;5055613;28;20210;-72
2023/04/17 05:20:55;;;;;;;40.50;26.07;;;10.90;99.90;;;;;;5054814;28;20961;-73
2023/04/17 05:23:21;;;;;;;45.13;28.00;;;10.90;99.90;;;;;;5055848;28;20689;-73
2023/04/17 05:25:47;;;;;;;41.70;27.47;;;10.90;99.90;;;;;;5056161;28;20660;-72
2023/04/17 05:28:13;;;;;;;45.83;25.07;;;11.00;99.90;;;;;;5055371;28;20412;-72
2023/04/17 05:30:38;;;;;;;38.00;25.73;;;11.00;99.90;;;;;;5055886;28;20487;-72
2023/04/17 05:33:04;;;;;;;34.93;23.83;;;11.00;99.90;;;;;;5055811;28;20174;-73
2023/04/17 05:35:29;;;;;;;38.40;23.50;;;11.00;99.90;;;;;;5055703;28;20812;-72
2023/04/17 05:37:55;;;;;;;37.40;23.67;;;11.10;99.90;;;;;;5055109;28;20202;-71
2023/04/17 05:40:21;;;;;;;38.13;23.20;;;11.10;99.90;;;;;;5054154;28;20167;-71
2023/04/17 05:42:46;;;;;;;39.40;25.37;;;11.20;99.90;;;;;;5055567;28;20177;-70
2023/04/17 05:45:13;;;;;;;32.73;22.87;;;11.20;99.90;;;;;;5055384;28;20217;-70
2023/04/17 05:47:39;;;;;;;33.17;22.33;;;11.20;99.90;;;;;;5055050;28;20212;-70
2023/04/17 05:50:05;;;;;;;36.77;23.37;;;11.30;99.90;;;;;;5054204;28;20444;-71
2023/04/17 05:52:31;;;;;;;31.47;21.03;;;11.40;99.90;;;;;;5055356;28;20171;-70
2023/04/17 05:54:56;;;;;;;29.17;21.30;;;11.50;99.90;;;;;;5053863;28;20814;-72
2023/04/17 05:57:22;;;;;;;33.67;19.80;;;11.50;99.90;;;;;;5053521;28;20207;-71
2023/04/17 05:59:48;;;;;;;30.87;19.57;;;11.60;99.90;;;;;;5055042;28;20171;-71
2023/04/17 06:02:14;;;;;;;31.00;19.60;;;11.70;99.90;;;;;;5054119;28;20182;-71
2023/04/17 06:04:41;;;;;;;27.50;18.97;;;11.70;99.90;;;;;;5054931;28;20416;-71
2023/04/17 06:07:06;;;;;;;31.50;21.77;;;11.80;99.90;;;;;;5054712;28;20405;-71
2023/04/17 06:09:32;;;;;;;27.30;19.77;;;11.80;99.90;;;;;;5054810;28;20780;-71
2023/04/17 06:11:58;;;;;;;28.90;19.57;;;11.90;99.90;;;;;;5053167;28;20506;-72
2023/04/17 06:14:24;;;;;;;28.93;19.40;;;11.90;99.90;;;;;;5054717;28;20285;-71
2023/04/17 06:16:49;;;;;;;26.03;18.70;;;12.00;99.90;;;;;;5054698;28;20453;-70
2023/04/17 06:19:15;;;;;;;30.67;20.80;;;12.00;99.90;;;;;;5056105;28;20175;-70
2023/04/17 06:21:40;;;;;;;26.13;19.87;;;12.00;99.90;;;;;;5060272;28;20231;-70
2023/04/17 06:24:06;;;;;;;30.70;20.70;;;12.10;99.90;;;;;;5057461;28;20190;-70
2023/04/17 06:26:32;;;;;;;32.90;20.07;;;12.10;99.90;;;;;;5059779;28;20225;-68
2023/04/17 06:28:57;;;;;;;29.33;17.53;;;12.10;99.90;;;;;;5060578;28;20925;-71
2023/04/17 06:31:23;;;;;;;29.80;20.40;;;12.20;99.90;;;;;;5059417;28;20639;-71
2023/04/17 06:33:49;;;;;;;27.53;19.30;;;12.20;99.90;;;;;;5062425;28;20174;-71
2023/04/17 06:36:15;;;;;;;29.77;20.23;;;12.10;99.90;;;;;;5059272;28;20170;-71
2023/04/17 06:38:40;;;;;;;29.63;17.80;;;12.10;99.90;;;;;;5058634;28;20495;-70
2023/04/17 06:41:06;;;;;;;28.73;19.77;;;12.10;99.90;;;;;;5057751;28;20175;-70
2023/04/17 06:43:31;;;;;;;33.33;21.00;;;12.20;99.90;;;;;;5056399;28;20164;-70
2023/04/17 06:45:57;;;;;;;25.77;18.43;;;12.20;99.90;;;;;;5058588;28;20210;-71
2023/04/17 06:48:23;;;;;;;30.47;21.90;;;12.30;99.90;;;;;;5056785;28;20167;-70
2023/04/17 06:50:48;;;;;;;27.90;19.00;;;12.40;99.90;;;;;;5056007;28;20167;-68
2023/04/17 06:53:14;;;;;;;27.83;20.07;;;12.60;99.90;;;;;;5054702;28;20254;-70
2023/04/17 06:55:39;;;;;;;31.13;19.83;;;12.70;99.90;;;;;;5054938;28;20614;-69
2023/04/17 06:58:07;;;;;;;22.10;17.17;;;12.80;99.90;;;;;;5054380;28;20190;-70
2023/04/17 07:00:32;;;;;;;34.30;20.40;;;12.80;99.90;;;;;;5054463;28;20163;-69
2023/04/17 07:02:58;;;;;;;27.20;18.87;;;12.90;99.90;;;;;;5054420;28;20402;-70
2023/04/17 07:05:24;;;;;;;25.40;18.47;;;12.90;99.90;;;;;;5054687;28;20208;-70
2023/04/17 07:07:49;;;;;;;22.97;17.03;;;13.00;99.90;;;;;;5054061;28;20250;-70
2023/04/17 07:10:18;;;;;;;24.53;18.80;;;13.00;99.90;;;;;;5053931;28;20171;-68
2023/04/17 07:12:44;;;;;;;24.60;17.57;;;13.10;99.90;;;;;;5053806;28;20221;-70
2023/04/17 07:15:09;;;;;;;23.80;15.83;;;13.10;99.90;;;;;;5052636;28;20446;-70
2023/04/17 07:17:35;;;;;;;30.20;19.90;;;13.10;99.90;;;;;;5052352;28;20213;-70
2023/04/17 07:20:01;;;;;;;31.03;21.13;;;13.20;99.90;;;;;;5054032;28;20488;-70
2023/04/17 07:22:27;;;;;;;27.10;18.83;;;13.20;99.90;;;;;;5053993;28;20159;-70
2023/04/17 07:24:53;;;;;;;29.50;18.07;;;13.30;99.90;;;;;;5052754;28;20281;-70
2023/04/17 07:27:18;;;;;;;27.93;18.97;;;13.40;99.90;;;;;;5053820;28;20500;-70
2023/04/17 07:29:46;;;;;;;27.03;18.27;;;13.40;99.90;;;;;;5054066;28;20182;-70
2023/04/17 07:32:12;;;;;;;24.70;18.23;;;13.50;99.90;;;;;;5053832;28;20171;-70
2023/04/17 07:34:40;;;;;;;28.73;17.70;;;13.50;99.90;;;;;;5053333;28;20479;-69
2023/04/17 07:37:05;;;;;;;24.93;17.80;;;13.50;99.90;;;;;;5053909;28;20460;-70
2023/04/17 07:39:31;;;;;;;25.37;17.33;;;13.50;99.90;;;;;;5052570;28;20410;-71
2023/04/17 07:41:56;;;;;;;30.10;20.83;;;13.50;99.90;;;;;;5053609;28;20170;-68
2023/04/17 07:44:22;;;;;;;25.50;18.23;;;13.40;99.90;;;;;;5053392;28;20540;-71
2023/04/17 07:46:47;;;;;;;29.30;19.90;;;13.40;99.90;;;;;;5053365;28;20178;-69
2023/04/17 07:49:13;;;;;;;33.10;19.53;;;13.40;99.90;;;;;;5053275;28;20175;-69
2023/04/17 07:51:39;;;;;;;21.57;16.37;;;13.30;99.90;;;;;;5053285;28;20167;-69
2023/04/17 07:54:05;;;;;;;23.13;17.70;;;13.40;99.90;;;;;;5053185;28;20534;-70
2023/04/17 07:56:33;;;;;;;20.67;16.00;;;13.40;99.90;;;;;;5053535;28;20451;-70
2023/04/17 07:58:59;;;;;;;30.73;21.20;;;13.50;99.90;;;;;;5053206;28;20156;-70
2023/04/17 08:01:25;;;;;;;24.87;18.70;;;13.60;99.90;;;;;;5053333;28;20405;-70
2023/04/17 08:03:51;;;;;;;25.87;18.57;;;13.70;99.90;;;;;;5053139;28;20242;-70
2023/04/17 08:06:17;;;;;;;27.27;17.90;;;13.60;99.90;;;;;;5055015;28;20405;-69
2023/04/17 08:08:46;;;;;;;22.30;16.47;;;13.60;99.90;;;;;;5056799;28;20420;-69
2023/04/17 08:11:12;;;;;;;29.20;19.37;;;13.70;99.90;;;;;;5055081;28;20163;-70
2023/04/17 08:13:38;;;;;;;25.10;18.13;;;13.70;99.90;;;;;;5055295;28;20417;-70
2023/04/17 08:16:04;;;;;;;23.67;18.27;;;13.70;99.90;;;;;;5055053;28;20462;-70
2023/04/17 08:18:30;;;;;;;20.50;16.00;;;13.70;99.90;;;;;;5052245;28;20199;-70
2023/04/17 08:20:56;;;;;;;25.60;18.00;;;13.70;99.90;;;;;;5053276;28;20242;-71
2023/04/17 08:23:22;;;;;;;22.37;15.57;;;13.40;99.90;;;;;;5053300;28;20467;-71
2023/04/17 08:25:47;;;;;;;24.90;17.40;;;13.50;99.90;;;;;;5053649;28;20190;-70
2023/04/17 08:28:13;;;;;;;22.07;16.07;;;13.60;99.90;;;;;;5052536;28;20542;-69
2023/04/17 08:30:38;;;;;;;27.07;19.47;;;13.80;99.90;;;;;;5052863;28;20174;-71
2023/04/17 08:33:04;;;;;;;25.30;17.87;;;13.80;99.90;;;;;;5051206;28;20183;-70
2023/04/17 08:35:29;;;;;;;21.77;16.67;;;14.00;99.90;;;;;;5052426;28;20573;-70
2023/04/17 08:37:57;;;;;;;22.10;17.53;;;14.10;99.90;;;;;;5051936;28;20278;-69
2023/04/17 08:40:25;;;;;;;24.80;18.87;;;14.10;99.90;;;;;;5052687;28;20167;-70
2023/04/17 08:42:51;;;;;;;24.43;17.60;;;14.30;99.90;;;;;;5052496;28;20484;-70
2023/04/17 08:45:18;;;;;;;21.50;16.20;;;14.50;99.90;;;;;;5052240;28;20422;-69
2023/04/17 08:47:44;;;;;;;20.50;15.30;;;14.70;99.90;;;;;;5051175;28;20922;-69
2023/04/17 08:50:12;;;;;;;24.60;16.50;;;14.90;99.90;;;;;;5050941;28;20418;-69
2023/04/17 08:52:39;;;;;;;20.80;16.07;;;15.10;99.90;;;;;;5051852;28;20525;-70
2023/04/17 08:55:05;;;;;;;21.80;16.67;;;15.30;99.90;;;;;;5051936;28;20429;-69
2023/04/17 08:57:31;;;;;;;26.20;15.77;;;15.50;99.90;;;;;;5051576;28;20457;-69
2023/04/17 08:59:57;;;;;;;19.53;15.73;;;15.60;99.90;;;;;;5051999;28;20458;-69
2023/04/17 09:02:22;;;;;;;22.30;16.13;;;15.50;99.90;;;;;;5052151;28;20167;-70
2023/04/17 09:04:48;;;;;;;25.33;18.53;;;15.60;99.90;;;;;;5052121;28;20590;-70
2023/04/17 09:07:14;;;;;;;24.03;16.37;;;15.60;99.90;;;;;;5051574;28;20261;-70
2023/04/17 09:09:56;;;;;;;21.90;16.77;;;15.50;99.90;;;;;;5050539;28;20493;-69
2023/04/17 09:12:24;;;;;;;22.53;15.30;;;15.40;99.90;;;;;;5050597;28;20186;-69
2023/04/17 09:14:50;;;;;;;25.63;16.00;;;15.20;99.90;;;;;;5051815;28;20451;-70
2023/04/17 09:17:17;;;;;;;21.43;16.60;;;15.20;99.90;;;;;;5051451;28;20549;-70
2023/04/17 09:20:07;;;;;;;29.93;19.07;;;15.10;99.90;;;;;;5051409;28;20393;-69
2023/04/17 09:22:35;;;;;;;23.93;17.63;;;15.10;99.90;;;;;;5051812;28;20398;-70
2023/04/17 09:25:01;;;;;;;23.17;17.17;;;15.10;99.90;;;;;;5051835;28;20417;-69
2023/04/17 09:27:28;;;;;;;21.73;17.50;;;15.10;99.90;;;;;;5052259;28;20409;-70
2023/04/17 09:30:03;;;;;;;23.43;16.93;;;15.10;99.90;;;;;;5051523;28;20401;-69
2023/04/17 09:32:31;;;;;;;24.60;18.33;;;15.20;99.90;;;;;;5050192;28;20562;-69
2023/04/17 09:34:59;;;;;;;25.00;19.73;;;15.30;99.90;;;;;;5052261;28;21007;-70
2023/04/17 09:37:26;;;;;;;24.73;17.50;;;15.40;99.90;;;;;;5051175;28;20437;-69
2023/04/17 09:40:10;;;;;;;15.40;13.30;;;15.50;99.90;;;;;;5051514;28;20397;-69
2023/04/17 09:43:02;;;;;;;21.03;15.40;;;15.60;99.90;;;;;;5051483;28;20906;-69
2023/04/17 09:45:37;;;;;;;26.13;14.77;;;15.80;99.90;;;;;;5050331;28;20433;-70
2023/04/17 09:48:07;;;;;;;19.97;14.53;;;16.10;99.90;;;;;;5051236;28;20431;-71
2023/04/17 09:50:33;;;;;;;19.37;14.90;;;17.00;99.90;;;;;;5052800;28;20413;-70
2023/04/17 09:52:59;;;;;;;16.63;13.37;;;18.20;99.90;;;;;;5051200;28;20411;-68
2023/04/17 09:55:28;;;;;;;15.80;10.90;;;20.40;99.90;;;;;;5051248;28;20421;-68
2023/04/17 09:57:56;;;;;;;12.40;11.10;;;23.20;99.90;;;;;;5050961;28;20249;-68
2023/04/17 10:00:25;;;;;;;13.97;11.87;;;25.10;86.50;;;;;;5055010;28;20407;-69
2023/04/17 10:02:52;;;;;;;16.60;12.47;;;28.50;67.40;;;;;;5055117;28;20429;-71
2023/04/17 10:05:22;;;;;;;12.60;11.33;;;31.30;53.50;;;;;;5055403;28;20421;-71
2023/04/17 10:07:48;;;;;;;11.30;10.20;;;31.30;45.10;;;;;;5054937;28;20409;-71
2023/04/17 10:10:32;;;;;;;12.00;9.87;;;32.60;43.80;;;;;;5054087;28;20936;-70
2023/04/17 10:13:00;;;;;;;11.53;10.53;;;34.00;40.90;;;;;;5055151;28;20244;-68
2023/04/17 10:15:27;;;;;;;20.40;10.90;;;34.20;38.20;;;;;;5055043;28;20436;-69
2023/04/17 10:17:55;;;;;;;11.23;10.23;;;34.30;36.80;;;;;;5055171;28;20453;-68
2023/04/17 10:20:23;;;;;;;11.50;10.47;;;35.00;35.00;;;;;;5054914;28;20489;-68
2023/04/17 10:22:55;;;;;;;10.87;9.97;;;34.20;34.80;;;;;;5053222;28;20504;-68
2023/04/17 10:25:22;;;;;;;12.90;11.57;;;33.50;34.20;;;;;;5053820;28;20969;-69
2023/04/17 10:27:59;;;;;;;11.37;10.20;;;33.30;35.40;;;;;;5053548;28;20433;-68
2023/04/17 10:30:53;;;;;;;9.23;8.30;;;35.40;34.60;;;;;;5054470;28;20492;-69
2023/04/17 10:33:21;;;;;;;10.00;9.10;;;38.10;32.40;;;;;;5054412;28;20425;-69
2023/04/17 10:35:47;;;;;;;7.93;7.33;;;40.30;30.40;;;;;;5054183;28;20487;-69
2023/04/17 10:38:15;;;;;;;9.47;7.80;;;42.30;29.40;;;;;;5053978;28;21006;-69
2023/04/17 10:40:42;;;;;;;7.17;6.50;;;44.10;27.70;;;;;;5054320;28;20372;-69
2023/04/17 10:43:15;;;;;;;8.00;7.20;;;44.80;25.70;;;;;;5054272;28;20398;-69
2023/04/17 10:46:10;;;;;;;9.07;8.37;;;45.20;25.60;;;;;;5054173;28;20414;-68
2023/04/17 10:48:41;;;;;;;6.90;6.40;;;45.90;23.80;;;;;;5053837;28;20445;-68
2023/04/17 10:51:31;;;;;;;8.70;7.90;;;45.80;23.70;;;;;;5053750;28;20409;-68
2023/04/17 10:54:01;;;;;;;8.13;7.53;;;45.20;23.30;;;;;;5054040;28;20380;-68
2023/04/17 10:56:37;;;;;;;7.83;7.23;;;44.20;22.70;;;;;;5053913;28;20483;-70
2023/04/17 10:59:07;;;;;;;8.40;7.80;;;44.00;23.50;;;;;;5053860;28;20397;-68
2023/04/17 11:01:36;;;;;;;8.97;8.20;;;44.10;23.80;;;;;;5053889;28;20380;-70
2023/04/17 11:04:03;;;;;;;7.93;7.30;;;45.10;23.60;;;;;;5053690;28;20412;-69
2023/04/17 11:06:30;;;;;;;8.90;8.00;;;45.90;23.40;;;;;;5053853;28;20400;-69
2023/04/17 11:08:56;;;;;;;8.50;7.83;;;46.80;23.00;;;;;;5053623;28;20424;-71
2023/04/17 11:11:22;;;;;;;8.27;7.67;;;47.50;22.50;;;;;;5052616;28;20384;-70
2023/04/17 11:13:48;;;;;;;7.93;7.40;;;48.60;22.30;;;;;;5053879;28;20399;-70
2023/04/17 11:16:14;;;;;;;7.63;6.93;;;48.50;21.80;;;;;;5053935;28;20379;-70
2023/04/17 11:18:44;;;;;;;7.63;7.13;;;48.40;21.90;;;;;;5053832;28;20297;-71
2023/04/17 11:21:11;;;;;;;9.43;8.63;;;48.80;22.00;;;;;;5052747;28;20446;-70
2023/04/17 11:23:37;;;;;;;7.97;6.77;;;48.30;20.60;;;;;;5053795;28;20492;-70
2023/04/17 11:26:03;;;;;;;8.43;7.73;;;47.40;20.90;;;;;;5053521;28;20927;-70
2023/04/17 11:28:28;;;;;;;8.40;7.70;;;46.90;20.40;;;;;;5051837;28;20548;-70
2023/04/17 11:30:54;;;;;;;8.73;7.93;;;46.70;20.40;;;;;;5053253;28;20166;-70
2023/04/17 11:33:20;;;;;;;7.93;7.20;;;45.40;20.90;;;;;;5053182;28;20658;-70
2023/04/17 11:35:46;;;;;;;9.23;8.33;;;45.60;21.80;;;;;;5053245;28;20191;-69
2023/04/17 11:38:22;;;;;;;7.77;7.07;;;46.00;21.20;;;;;;5052843;28;20170;-68
2023/04/17 11:40:52;;;;;;;7.80;7.23;;;46.30;21.30;;;;;;5052899;28;20162;-69
2023/04/17 11:43:19;;;;;;;7.33;6.73;;;46.70;21.10;;;;;;5052931;28;20471;-70
2023/04/17 11:45:48;;;;;;;7.73;7.10;;;46.90;21.10;;;;;;5053135;28;20429;-69
2023/04/17 11:48:15;;;;;;;7.33;6.73;;;46.80;20.90;;;;;;5051290;28;20478;-69
2023/04/17 11:50:42;;;;;;;8.13;7.37;;;45.00;20.70;;;;;;5052998;28;20380;-69
2023/04/17 11:53:12;;;;;;;8.27;7.43;;;42.80;20.40;;;;;;5053021;28;20410;-68
2023/04/17 11:55:38;;;;;;;7.93;7.27;;;42.60;21.70;;;;;;5052784;28;20964;-69
2023/04/17 11:58:06;;;;;;;7.60;7.03;;;42.00;21.40;;;;;;5052534;28;20500;-69
2023/04/17 12:00:33;;;;;;;8.70;7.30;;;41.10;22.10;;;;;;5052879;28;20525;-68
2023/04/17 12:03:01;;;;;;;8.47;7.73;;;41.60;22.30;;;;;;5052650;28;20825;-71
2023/04/17 12:05:28;;;;;;;7.13;6.50;;;42.00;21.20;;;;;;5052844;28;20407;-68
2023/04/17 12:08:00;;;;;;;7.07;6.47;;;42.00;21.30;;;;;;5052277;28;20441;-68
2023/04/17 12:10:40;;;;;;;7.80;7.00;;;42.40;21.80;;;;;;5052554;28;20405;-68
2023/04/17 12:13:07;;;;;;;7.60;6.67;;;43.40;21.70;;;;;;5052472;28;20432;-68
2023/04/17 12:15:34;;;;;;;7.53;6.93;;;44.20;21.50;;;;;;5052409;28;20407;-68
2023/04/17 12:18:04;;;;;;;8.50;6.83;;;44.80;21.10;;;;;;5052185;28;20437;-68
2023/04/17 12:20:30;;;;;;;7.50;6.90;;;44.60;20.40;;;;;;5052362;28;20409;-69
2023/04/17 12:22:56;;;;;;;6.47;5.97;;;44.50;20.70;;;;;;5052160;28;20817;-68
2023/04/17 12:25:21;;;;;;;6.33;5.87;;;44.80;20.90;;;;;;5050890;28;20451;-68
2023/04/17 12:27:47;;;;;;;5.50;5.03;;;45.00;20.50;;;;;;5051959;28;20289;-68
2023/04/17 12:30:13;;;;;;;6.90;5.80;;;44.80;20.60;;;;;;5052205;28;20198;-69